METAR|ÜBERSETZT|TAF
EDHK 271550Z 22007KT CAVOK 19/10 Q1024
Login|Impressum|Kontakt



Buchtipp - Klaus Griese: Luftfahrtgeschichte der Stadt Kiel

90 Jahre Luftsport, Luftverkehr, Marinefliegerei Viele kleine und große Geschichten der Fliegerei in Kiel von den Anfängen bis zur Gegenwart.   Hier klicken für Details.    


Buchtipp - Dieter Steffen: Prägung

Lesenswert und spannende Fliegerlektüre. Hier klicken für die Rezension.



Hier erfahren Sie alles über Motorflug Segelflug Fallschirmspringen Ballonfahren




Der LSV-Kiel ist Mitglied im
Luftsportverband Schleswig-Holstein und im
DAeC